sensor_id;sensor_type;location;lat;lon;timestamp;pressure;altitude;pressure_sealevel;temperature;humidity
66547;BME280;53400;50.364;14.874;2023-08-08T00:01:01;98481.56;;;11.63;100.00
66547;BME280;53400;50.364;14.874;2023-08-08T00:03:34;98476.09;;;11.53;100.00
66547;BME280;53400;50.364;14.874;2023-08-08T00:06:01;98482.47;;;11.46;100.00
66547;BME280;53400;50.364;14.874;2023-08-08T00:08:26;98469.00;;;11.36;100.00
66547;BME280;53400;50.364;14.874;2023-08-08T00:10:54;98479.91;;;11.57;100.00
66547;BME280;53400;50.364;14.874;2023-08-08T00:13:20;98482.09;;;11.60;100.00
66547;BME280;53400;50.364;14.874;2023-08-08T00:15:46;98492.75;;;11.55;100.00
66547;BME280;53400;50.364;14.874;2023-08-08T00:18:12;98484.31;;;11.41;100.00
66547;BME280;53400;50.364;14.874;2023-08-08T00:20:37;98488.41;;;11.48;100.00
66547;BME280;53400;50.364;14.874;2023-08-08T00:23:03;98487.97;;;11.62;100.00
66547;BME280;53400;50.364;14.874;2023-08-08T00:25:30;98480.72;;;11.57;100.00
66547;BME280;53400;50.364;14.874;2023-08-08T00:27:57;98485.28;;;11.57;100.00
66547;BME280;53400;50.364;14.874;2023-08-08T00:30:23;98482.69;;;11.40;100.00
66547;BME280;53400;50.364;14.874;2023-08-08T00:32:49;98483.69;;;11.61;100.00
66547;BME280;53400;50.364;14.874;2023-08-08T00:35:15;98477.03;;;11.36;100.00
66547;BME280;53400;50.364;14.874;2023-08-08T00:37:40;98480.56;;;11.42;100.00
66547;BME280;53400;50.364;14.874;2023-08-08T00:40:08;98476.81;;;11.16;100.00
66547;BME280;53400;50.364;14.874;2023-08-08T00:42:34;98479.56;;;11.21;100.00
66547;BME280;53400;50.364;14.874;2023-08-08T00:45:01;98482.47;;;11.19;100.00
66547;BME280;53400;50.364;14.874;2023-08-08T00:47:30;98476.28;;;11.14;100.00
66547;BME280;53400;50.364;14.874;2023-08-08T00:49:56;98476.75;;;11.11;100.00
66547;BME280;53400;50.364;14.874;2023-08-08T00:52:22;98475.06;;;11.05;100.00
66547;BME280;53400;50.364;14.874;2023-08-08T00:54:48;98480.44;;;11.05;100.00
66547;BME280;53400;50.364;14.874;2023-08-08T00:57:14;98480.13;;;11.01;100.00
66547;BME280;53400;50.364;14.874;2023-08-08T00:59:40;98482.22;;;10.94;100.00
66547;BME280;53400;50.364;14.874;2023-08-08T01:02:07;98477.44;;;11.01;100.00
66547;BME280;53400;50.364;14.874;2023-08-08T01:04:33;98483.59;;;10.96;100.00
66547;BME280;53400;50.364;14.874;2023-08-08T01:07:06;98482.22;;;10.94;100.00
66547;BME280;53400;50.364;14.874;2023-08-08T01:09:37;98491.13;;;10.99;100.00
66547;BME280;53400;50.364;14.874;2023-08-08T01:12:06;98485.13;;;10.92;100.00
66547;BME280;53400;50.364;14.874;2023-08-08T01:14:35;98489.03;;;11.07;100.00
66547;BME280;53400;50.364;14.874;2023-08-08T01:17:02;98484.13;;;10.98;100.00
66547;BME280;53400;50.364;14.874;2023-08-08T01:19:31;98481.78;;;11.02;100.00
66547;BME280;53400;50.364;14.874;2023-08-08T01:22:02;98484.28;;;10.87;100.00
66547;BME280;53400;50.364;14.874;2023-08-08T01:24:31;98482.91;;;10.84;100.00
66547;BME280;53400;50.364;14.874;2023-08-08T01:27:00;98478.34;;;10.85;100.00
66547;BME280;53400;50.364;14.874;2023-08-08T01:29:26;98473.13;;;10.73;100.00
66547;BME280;53400;50.364;14.874;2023-08-08T01:31:53;98477.03;;;10.87;100.00
66547;BME280;53400;50.364;14.874;2023-08-08T01:34:19;98478.91;;;10.87;100.00
66547;BME280;53400;50.364;14.874;2023-08-08T01:36:49;98474.75;;;10.96;100.00
66547;BME280;53400;50.364;14.874;2023-08-08T01:39:21;98468.72;;;10.84;100.00
66547;BME280;53400;50.364;14.874;2023-08-08T01:41:50;98456.16;;;10.89;100.00
66547;BME280;53400;50.364;14.874;2023-08-08T01:44:17;98463.75;;;10.97;100.00
66547;BME280;53400;50.364;14.874;2023-08-08T01:46:43;98468.31;;;10.97;100.00
66547;BME280;53400;50.364;14.874;2023-08-08T01:49:09;98469.53;;;11.11;100.00
66547;BME280;53400;50.364;14.874;2023-08-08T01:51:35;98466.91;;;11.16;100.00
66547;BME280;53400;50.364;14.874;2023-08-08T01:54:01;98474.06;;;11.11;100.00
66547;BME280;53400;50.364;14.874;2023-08-08T01:56:27;98468.25;;;11.14;100.00
66547;BME280;53400;50.364;14.874;2023-08-08T01:58:54;98466.81;;;11.06;100.00
66547;BME280;53400;50.364;14.874;2023-08-08T02:01:20;98462.53;;;11.10;100.00
66547;BME280;53400;50.364;14.874;2023-08-08T02:03:46;98461.19;;;11.08;100.00
66547;BME280;53400;50.364;14.874;2023-08-08T02:06:12;98454.09;;;10.96;100.00
66547;BME280;53400;50.364;14.874;2023-08-08T02:08:38;98461.06;;;10.97;100.00
66547;BME280;53400;50.364;14.874;2023-08-08T02:11:04;98455.66;;;10.92;100.00
66547;BME280;53400;50.364;14.874;2023-08-08T02:13:30;98459.34;;;10.64;100.00
66547;BME280;53400;50.364;14.874;2023-08-08T02:15:57;98454.44;;;10.78;100.00
66547;BME280;53400;50.364;14.874;2023-08-08T02:18:23;98451.69;;;10.73;100.00
66547;BME280;53400;50.364;14.874;2023-08-08T02:20:49;98450.63;;;10.74;100.00
66547;BME280;53400;50.364;14.874;2023-08-08T02:23:15;98437.63;;;10.61;100.00
66547;BME280;53400;50.364;14.874;2023-08-08T02:25:41;98446.25;;;10.68;100.00
66547;BME280;53400;50.364;14.874;2023-08-08T02:28:07;98446.41;;;10.78;100.00
66547;BME280;53400;50.364;14.874;2023-08-08T02:30:32;98439.91;;;10.74;100.00
66547;BME280;53400;50.364;14.874;2023-08-08T02:33:00;98444.97;;;10.48;100.00
66547;BME280;53400;50.364;14.874;2023-08-08T02:35:26;98444.97;;;10.48;100.00
66547;BME280;53400;50.364;14.874;2023-08-08T02:37:52;98447.91;;;10.47;100.00
66547;BME280;53400;50.364;14.874;2023-08-08T02:40:17;98446.75;;;10.65;100.00
66547;BME280;53400;50.364;14.874;2023-08-08T02:42:44;98448.72;;;10.47;100.00
66547;BME280;53400;50.364;14.874;2023-08-08T02:45:10;98446.75;;;10.43;100.00
66547;BME280;53400;50.364;14.874;2023-08-08T02:47:36;98453.38;;;10.35;100.00
66547;BME280;53400;50.364;14.874;2023-08-08T02:50:03;98449.31;;;10.16;100.00
66547;BME280;53400;50.364;14.874;2023-08-08T02:52:29;98454.91;;;10.14;100.00
66547;BME280;53400;50.364;14.874;2023-08-08T02:54:55;98461.06;;;10.15;100.00
66547;BME280;53400;50.364;14.874;2023-08-08T02:57:21;98460.56;;;10.34;100.00
66547;BME280;53400;50.364;14.874;2023-08-08T02:59:47;98460.81;;;10.33;100.00
66547;BME280;53400;50.364;14.874;2023-08-08T03:02:12;98460.50;;;10.13;100.00
66547;BME280;53400;50.364;14.874;2023-08-08T03:04:38;98452.13;;;10.26;100.00
66547;BME280;53400;50.364;14.874;2023-08-08T03:07:06;98461.63;;;10.33;100.00
66547;BME280;53400;50.364;14.874;2023-08-08T03:09:32;98452.88;;;10.21;100.00
66547;BME280;53400;50.364;14.874;2023-08-08T03:11:58;98451.50;;;10.19;100.00
66547;BME280;53400;50.364;14.874;2023-08-08T03:14:23;98449.78;;;10.13;100.00
66547;BME280;53400;50.364;14.874;2023-08-08T03:16:49;98456.03;;;10.18;100.00
66547;BME280;53400;50.364;14.874;2023-08-08T03:19:15;98452.91;;;10.04;100.00
66547;BME280;53400;50.364;14.874;2023-08-08T03:21:41;98461.16;;;10.03;100.00
66547;BME280;53400;50.364;14.874;2023-08-08T03:24:08;98461.47;;;10.23;100.00
66547;BME280;53400;50.364;14.874;2023-08-08T03:26:34;98464.06;;;10.18;100.00
66547;BME280;53400;50.364;14.874;2023-08-08T03:29:00;98464.09;;;10.01;100.00
66547;BME280;53400;50.364;14.874;2023-08-08T03:31:26;98460.44;;;10.07;100.00
66547;BME280;53400;50.364;14.874;2023-08-08T03:33:52;98457.66;;;10.19;100.00
66547;BME280;53400;50.364;14.874;2023-08-08T03:36:19;98465.78;;;10.07;100.00
66547;BME280;53400;50.364;14.874;2023-08-08T03:38:45;98470.00;;;10.03;100.00
66547;BME280;53400;50.364;14.874;2023-08-08T03:41:13;98473.00;;;10.07;100.00
66547;BME280;53400;50.364;14.874;2023-08-08T03:43:39;98470.72;;;10.32;100.00
66547;BME280;53400;50.364;14.874;2023-08-08T03:46:06;98467.97;;;10.10;100.00
66547;BME280;53400;50.364;14.874;2023-08-08T03:48:31;98479.53;;;10.16;100.00
66547;BME280;53400;50.364;14.874;2023-08-08T03:50:58;98477.78;;;10.05;100.00
66547;BME280;53400;50.364;14.874;2023-08-08T03:53:24;98474.22;;;9.99;100.00
66547;BME280;53400;50.364;14.874;2023-08-08T03:55:50;98483.94;;;10.05;100.00
66547;BME280;53400;50.364;14.874;2023-08-08T03:58:17;98480.69;;;10.03;100.00
66547;BME280;53400;50.364;14.874;2023-08-08T04:00:43;98478.03;;;10.20;100.00
66547;BME280;53400;50.364;14.874;2023-08-08T04:03:13;98486.34;;;10.41;100.00
66547;BME280;53400;50.364;14.874;2023-08-08T04:05:40;98487.81;;;10.48;100.00
66547;BME280;53400;50.364;14.874;2023-08-08T04:08:05;98495.22;;;10.63;100.00
66547;BME280;53400;50.364;14.874;2023-08-08T04:10:31;98486.50;;;10.73;100.00
66547;BME280;53400;50.364;14.874;2023-08-08T04:12:57;98495.00;;;10.87;100.00
66547;BME280;53400;50.364;14.874;2023-08-08T04:15:25;98494.28;;;11.45;100.00
66547;BME280;53400;50.364;14.874;2023-08-08T04:17:50;98495.09;;;11.46;100.00
66547;BME280;53400;50.364;14.874;2023-08-08T04:20:16;98491.97;;;11.59;100.00
66547;BME280;53400;50.364;14.874;2023-08-08T04:22:42;98492.69;;;11.77;100.00
66547;BME280;53400;50.364;14.874;2023-08-08T04:25:08;98498.06;;;12.09;100.00
66547;BME280;53400;50.364;14.874;2023-08-08T04:27:34;98491.22;;;12.28;100.00
66547;BME280;53400;50.364;14.874;2023-08-08T04:30:00;98504.03;;;12.63;98.41
66547;BME280;53400;50.364;14.874;2023-08-08T04:32:27;98506.91;;;13.09;96.47
66547;BME280;53400;50.364;14.874;2023-08-08T04:34:53;98502.34;;;13.10;94.57
66547;BME280;53400;50.364;14.874;2023-08-08T04:37:19;98506.72;;;13.26;94.79
66547;BME280;53400;50.364;14.874;2023-08-08T04:39:45;98511.84;;;13.38;94.27
66547;BME280;53400;50.364;14.874;2023-08-08T04:42:11;98517.56;;;13.72;92.35
66547;BME280;53400;50.364;14.874;2023-08-08T04:44:37;98519.19;;;13.84;91.28
66547;BME280;53400;50.364;14.874;2023-08-08T04:47:03;98519.47;;;13.97;89.89
66547;BME280;53400;50.364;14.874;2023-08-08T04:49:30;98517.00;;;14.42;88.83
66547;BME280;53400;50.364;14.874;2023-08-08T04:51:56;98518.38;;;14.09;89.38
66547;BME280;53400;50.364;14.874;2023-08-08T04:54:22;98519.38;;;14.69;88.60
66547;BME280;53400;50.364;14.874;2023-08-08T04:56:48;98509.22;;;15.21;85.54
66547;BME280;53400;50.364;14.874;2023-08-08T04:59:14;98519.34;;;15.44;84.85
66547;BME280;53400;50.364;14.874;2023-08-08T05:01:40;98518.53;;;15.88;82.10
66547;BME280;53400;50.364;14.874;2023-08-08T05:04:06;98519.56;;;16.26;81.22
66547;BME280;53400;50.364;14.874;2023-08-08T05:06:33;98506.75;;;16.61;78.96
66547;BME280;53400;50.364;14.874;2023-08-08T05:08:59;98500.63;;;17.04;77.65
66547;BME280;53400;50.364;14.874;2023-08-08T05:11:25;98506.66;;;17.19;76.57
66547;BME280;53400;50.364;14.874;2023-08-08T05:13:51;98519.25;;;17.48;74.92
66547;BME280;53400;50.364;14.874;2023-08-08T05:16:17;98513.63;;;17.63;74.66
66547;BME280;53400;50.364;14.874;2023-08-08T05:18:43;98519.91;;;17.97;72.79
66547;BME280;53400;50.364;14.874;2023-08-08T05:21:12;98516.78;;;17.90;73.59
66547;BME280;53400;50.364;14.874;2023-08-08T05:23:39;98515.25;;;17.83;73.18
66547;BME280;53400;50.364;14.874;2023-08-08T05:26:05;98520.13;;;17.43;74.31
66547;BME280;53400;50.364;14.874;2023-08-08T05:28:31;98514.22;;;17.41;74.72
66547;BME280;53400;50.364;14.874;2023-08-08T05:30:57;98517.19;;;16.73;76.23
66547;BME280;53400;50.364;14.874;2023-08-08T05:33:24;98511.28;;;16.71;76.88
66547;BME280;53400;50.364;14.874;2023-08-08T05:35:49;98521.69;;;16.29;79.28
66547;BME280;53400;50.364;14.874;2023-08-08T05:38:15;98511.50;;;15.87;79.93
66547;BME280;53400;50.364;14.874;2023-08-08T05:40:42;98510.78;;;15.27;82.34
66547;BME280;53400;50.364;14.874;2023-08-08T05:43:08;98504.63;;;15.21;84.00
66547;BME280;53400;50.364;14.874;2023-08-08T05:45:34;98517.84;;;15.23;84.22
66547;BME280;53400;50.364;14.874;2023-08-08T05:48:00;98513.25;;;14.43;87.20
66547;BME280;53400;50.364;14.874;2023-08-08T05:50:26;98512.41;;;14.63;87.66
66547;BME280;53400;50.364;14.874;2023-08-08T05:52:53;98509.47;;;14.44;89.21
66547;BME280;53400;50.364;14.874;2023-08-08T05:55:19;98504.84;;;14.65;88.81
66547;BME280;53400;50.364;14.874;2023-08-08T05:57:46;98510.75;;;14.77;87.33
66547;BME280;53400;50.364;14.874;2023-08-08T06:00:12;98515.22;;;15.02;86.78
66547;BME280;53400;50.364;14.874;2023-08-08T06:02:39;98514.19;;;14.88;87.21
66547;BME280;53400;50.364;14.874;2023-08-08T06:05:05;98523.69;;;14.75;88.17
66547;BME280;53400;50.364;14.874;2023-08-08T06:07:32;98521.94;;;15.10;87.99
66547;BME280;53400;50.364;14.874;2023-08-08T06:10:00;98521.31;;;15.28;87.18
66547;BME280;53400;50.364;14.874;2023-08-08T06:12:26;98522.31;;;15.43;86.44
66547;BME280;53400;50.364;14.874;2023-08-08T06:14:53;98518.25;;;15.45;86.19
66547;BME280;53400;50.364;14.874;2023-08-08T06:17:19;98513.06;;;15.04;86.89
66547;BME280;53400;50.364;14.874;2023-08-08T06:19:45;98514.97;;;15.04;86.96
66547;BME280;53400;50.364;14.874;2023-08-08T06:22:11;98519.09;;;14.76;88.13
66547;BME280;53400;50.364;14.874;2023-08-08T06:24:37;98525.31;;;14.76;88.88
66547;BME280;53400;50.364;14.874;2023-08-08T06:27:04;98521.91;;;14.09;91.01
66547;BME280;53400;50.364;14.874;2023-08-08T06:29:30;98518.38;;;14.29;90.98
66547;BME280;53400;50.364;14.874;2023-08-08T06:31:58;98511.34;;;14.33;90.51
66547;BME280;53400;50.364;14.874;2023-08-08T06:34:23;98521.28;;;14.74;90.84
66547;BME280;53400;50.364;14.874;2023-08-08T06:36:49;98516.34;;;14.96;88.40
66547;BME280;53400;50.364;14.874;2023-08-08T06:39:15;98512.19;;;15.19;87.83
66547;BME280;53400;50.364;14.874;2023-08-08T06:41:41;98517.59;;;15.69;86.24
66547;BME280;53400;50.364;14.874;2023-08-08T06:44:07;98516.72;;;15.78;85.10
66547;BME280;53400;50.364;14.874;2023-08-08T06:46:34;98517.25;;;15.80;85.45
66547;BME280;53400;50.364;14.874;2023-08-08T06:49:01;98516.22;;;15.66;83.43
66547;BME280;53400;50.364;14.874;2023-08-08T06:51:28;98518.34;;;15.79;84.79
66547;BME280;53400;50.364;14.874;2023-08-08T06:53:56;98519.09;;;15.41;85.12
66547;BME280;53400;50.364;14.874;2023-08-08T06:56:23;98519.22;;;15.65;86.01
66547;BME280;53400;50.364;14.874;2023-08-08T06:58:48;98516.41;;;15.41;85.29
66547;BME280;53400;50.364;14.874;2023-08-08T07:01:15;98511.81;;;15.41;84.22
66547;BME280;53400;50.364;14.874;2023-08-08T07:03:41;98511.41;;;15.58;83.87
66547;BME280;53400;50.364;14.874;2023-08-08T07:06:09;98516.78;;;15.63;84.02
66547;BME280;53400;50.364;14.874;2023-08-08T07:08:35;98514.19;;;15.48;84.56
66547;BME280;53400;50.364;14.874;2023-08-08T07:11:05;98513.69;;;15.41;83.53
66547;BME280;53400;50.364;14.874;2023-08-08T07:13:34;98513.31;;;15.13;86.15
66547;BME280;53400;50.364;14.874;2023-08-08T07:16:00;98508.72;;;15.08;85.11
66547;BME280;53400;50.364;14.874;2023-08-08T07:18:26;98519.28;;;15.05;85.59
66547;BME280;53400;50.364;14.874;2023-08-08T07:20:52;98518.78;;;14.87;88.03
66547;BME280;53400;50.364;14.874;2023-08-08T07:23:19;98515.69;;;15.20;86.64
66547;BME280;53400;50.364;14.874;2023-08-08T07:25:46;98511.34;;;15.29;86.48
66547;BME280;53400;50.364;14.874;2023-08-08T07:28:12;98512.00;;;15.00;85.63
66547;BME280;53400;50.364;14.874;2023-08-08T07:30:40;98519.66;;;15.32;87.01
66547;BME280;53400;50.364;14.874;2023-08-08T07:33:06;98513.69;;;15.41;87.43
66547;BME280;53400;50.364;14.874;2023-08-08T07:35:34;98517.84;;;15.23;85.33
66547;BME280;53400;50.364;14.874;2023-08-08T07:38:00;98503.31;;;15.13;83.32
66547;BME280;53400;50.364;14.874;2023-08-08T07:40:27;98515.84;;;14.79;85.75
66547;BME280;53400;50.364;14.874;2023-08-08T07:42:54;98515.38;;;14.61;86.32
66547;BME280;53400;50.364;14.874;2023-08-08T07:45:20;98517.53;;;14.49;85.46
66547;BME280;53400;50.364;14.874;2023-08-08T07:47:46;98518.03;;;14.66;86.29
66547;BME280;53400;50.364;14.874;2023-08-08T07:50:12;98525.31;;;14.71;84.68
66547;BME280;53400;50.364;14.874;2023-08-08T07:52:38;98524.53;;;14.60;85.38
66547;BME280;53400;50.364;14.874;2023-08-08T07:55:05;98533.66;;;14.80;86.06
66547;BME280;53400;50.364;14.874;2023-08-08T07:57:32;98526.41;;;14.65;86.43
66547;BME280;53400;50.364;14.874;2023-08-08T08:00:00;98523.44;;;14.66;86.65
66547;BME280;53400;50.364;14.874;2023-08-08T08:02:33;98530.16;;;14.74;86.54
66547;BME280;53400;50.364;14.874;2023-08-08T08:04:59;98528.22;;;14.85;86.77
66547;BME280;53400;50.364;14.874;2023-08-08T08:07:25;98523.88;;;15.04;84.82
66547;BME280;53400;50.364;14.874;2023-08-08T08:09:51;98517.38;;;15.05;84.83
66547;BME280;53400;50.364;14.874;2023-08-08T08:12:17;98514.97;;;15.04;84.02
66547;BME280;53400;50.364;14.874;2023-08-08T08:14:46;98506.16;;;15.37;83.73
66547;BME280;53400;50.364;14.874;2023-08-08T08:17:12;98509.31;;;15.50;81.57
66547;BME280;53400;50.364;14.874;2023-08-08T08:19:38;98505.72;;;15.65;84.74
66547;BME280;53400;50.364;14.874;2023-08-08T08:22:04;98508.78;;;15.92;82.42
66547;BME280;53400;50.364;14.874;2023-08-08T08:24:31;98508.03;;;15.81;80.18
66547;BME280;53400;50.364;14.874;2023-08-08T08:26:57;98506.44;;;15.80;79.53
66547;BME280;53400;50.364;14.874;2023-08-08T08:29:23;98501.84;;;15.81;79.19
66547;BME280;53400;50.364;14.874;2023-08-08T08:31:50;98501.94;;;15.66;79.99
66547;BME280;53400;50.364;14.874;2023-08-08T08:34:17;98504.00;;;15.79;81.61
66547;BME280;53400;50.364;14.874;2023-08-08T08:36:42;98508.09;;;15.76;80.73
66547;BME280;53400;50.364;14.874;2023-08-08T08:39:09;98507.84;;;15.73;79.16
66547;BME280;53400;50.364;14.874;2023-08-08T08:41:35;98498.91;;;15.77;80.71
66547;BME280;53400;50.364;14.874;2023-08-08T08:44:03;98509.56;;;15.98;81.59
66547;BME280;53400;50.364;14.874;2023-08-08T08:46:30;98495.28;;;15.92;79.59
66547;BME280;53400;50.364;14.874;2023-08-08T08:48:58;98510.06;;;16.00;79.71
66547;BME280;53400;50.364;14.874;2023-08-08T08:51:25;98507.78;;;16.12;78.53
66547;BME280;53400;50.364;14.874;2023-08-08T08:53:53;98497.88;;;16.02;79.32
66547;BME280;53400;50.364;14.874;2023-08-08T08:56:19;98499.22;;;16.05;78.99
66547;BME280;53400;50.364;14.874;2023-08-08T08:58:46;98498.53;;;15.89;79.31
66547;BME280;53400;50.364;14.874;2023-08-08T09:01:12;98505.56;;;15.90;79.35
66547;BME280;53400;50.364;14.874;2023-08-08T09:03:38;98494.63;;;16.05;80.98
66547;BME280;53400;50.364;14.874;2023-08-08T09:06:07;98490.78;;;16.12;81.60
66547;BME280;53400;50.364;14.874;2023-08-08T09:08:33;98488.81;;;16.22;78.34
66547;BME280;53400;50.364;14.874;2023-08-08T09:11:00;98478.59;;;16.14;78.11
66547;BME280;53400;50.364;14.874;2023-08-08T09:13:26;98480.25;;;16.39;78.54
66547;BME280;53400;50.364;14.874;2023-08-08T09:15:52;98481.22;;;16.48;77.57
66547;BME280;53400;50.364;14.874;2023-08-08T09:18:18;98476.97;;;16.42;78.97
66547;BME280;53400;50.364;14.874;2023-08-08T09:20:47;98480.19;;;16.44;78.04
66547;BME280;53400;50.364;14.874;2023-08-08T09:23:15;98480.06;;;16.55;79.12
66547;BME280;53400;50.364;14.874;2023-08-08T09:25:41;98482.81;;;16.79;79.97
66547;BME280;53400;50.364;14.874;2023-08-08T09:28:07;98478.34;;;16.64;78.82
66547;BME280;53400;50.364;14.874;2023-08-08T09:30:35;98474.81;;;16.92;77.17
66547;BME280;53400;50.364;14.874;2023-08-08T09:33:01;98470.41;;;16.96;78.25
66547;BME280;53400;50.364;14.874;2023-08-08T09:35:28;98475.16;;;16.62;79.79
66547;BME280;53400;50.364;14.874;2023-08-08T09:37:55;98473.88;;;16.54;78.80
66547;BME280;53400;50.364;14.874;2023-08-08T09:40:23;98471.06;;;16.88;77.53
66547;BME280;53400;50.364;14.874;2023-08-08T09:42:51;98469.94;;;17.32;77.38
66547;BME280;53400;50.364;14.874;2023-08-08T09:45:17;98470.72;;;17.90;77.18
66547;BME280;53400;50.364;14.874;2023-08-08T09:47:44;98463.59;;;18.40;73.17
66547;BME280;53400;50.364;14.874;2023-08-08T09:50:10;98468.44;;;18.10;72.49
66547;BME280;53400;50.364;14.874;2023-08-08T09:52:36;98469.00;;;18.26;73.99
66547;BME280;53400;50.364;14.874;2023-08-08T09:55:06;98461.88;;;18.30;70.59
66547;BME280;53400;50.364;14.874;2023-08-08T09:57:35;98459.28;;;18.80;73.70
66547;BME280;53400;50.364;14.874;2023-08-08T10:00:03;98447.94;;;19.29;72.04
66547;BME280;53400;50.364;14.874;2023-08-08T10:02:31;98446.53;;;18.95;68.36
66547;BME280;53400;50.364;14.874;2023-08-08T10:04:58;98444.84;;;18.85;68.74
66547;BME280;53400;50.364;14.874;2023-08-08T10:07:24;98444.91;;;18.66;65.78
66547;BME280;53400;50.364;14.874;2023-08-08T10:09:51;98445.41;;;18.68;66.25
66547;BME280;53400;50.364;14.874;2023-08-08T10:12:17;98446.81;;;18.52;67.69
66547;BME280;53400;50.364;14.874;2023-08-08T10:14:45;98447.50;;;18.44;64.69
66547;BME280;53400;50.364;14.874;2023-08-08T10:17:13;98447.03;;;18.69;66.12
66547;BME280;53400;50.364;14.874;2023-08-08T10:19:40;98438.97;;;19.06;63.32
66547;BME280;53400;50.364;14.874;2023-08-08T10:22:07;98442.41;;;19.56;63.42
66547;BME280;53400;50.364;14.874;2023-08-08T10:24:35;98439.84;;;19.51;65.04
66547;BME280;53400;50.364;14.874;2023-08-08T10:27:02;98451.94;;;19.45;65.50
66547;BME280;53400;50.364;14.874;2023-08-08T10:29:32;98437.69;;;19.25;65.59
66547;BME280;53400;50.364;14.874;2023-08-08T10:32:01;98443.94;;;19.26;65.48
66547;BME280;53400;50.364;14.874;2023-08-08T10:34:35;98448.13;;;19.32;67.19
66547;BME280;53400;50.364;14.874;2023-08-08T10:37:04;98437.84;;;19.43;64.56
66547;BME280;53400;50.364;14.874;2023-08-08T10:39:30;98435.66;;;19.45;63.43
66547;BME280;53400;50.364;14.874;2023-08-08T10:42:00;98424.53;;;19.55;61.18
66547;BME280;53400;50.364;14.874;2023-08-08T10:44:28;98436.47;;;19.68;61.34
66547;BME280;53400;50.364;14.874;2023-08-08T10:46:55;98437.41;;;19.49;59.90
66547;BME280;53400;50.364;14.874;2023-08-08T10:49:23;98432.22;;;19.76;62.42
66547;BME280;53400;50.364;14.874;2023-08-08T10:51:50;98425.41;;;19.64;58.56
66547;BME280;53400;50.364;14.874;2023-08-08T10:54:19;98423.41;;;19.34;61.55
66547;BME280;53400;50.364;14.874;2023-08-08T10:56:53;98419.78;;;19.61;60.41
66547;BME280;53400;50.364;14.874;2023-08-08T10:59:20;98420.31;;;19.27;61.08
66547;BME280;53400;50.364;14.874;2023-08-08T11:01:48;98424.38;;;19.15;60.78
66547;BME280;53400;50.364;14.874;2023-08-08T11:04:15;98413.41;;;19.20;63.20
66547;BME280;53400;50.364;14.874;2023-08-08T11:06:43;98419.25;;;19.73;64.02
66547;BME280;53400;50.364;14.874;2023-08-08T11:09:09;98405.03;;;19.76;62.63
66547;BME280;53400;50.364;14.874;2023-08-08T11:11:36;98404.09;;;19.58;59.79
66547;BME280;53400;50.364;14.874;2023-08-08T11:14:09;98408.13;;;19.60;59.71
66547;BME280;53400;50.364;14.874;2023-08-08T11:16:35;98401.81;;;19.74;59.91
66547;BME280;53400;50.364;14.874;2023-08-08T11:19:01;98403.81;;;20.13;61.96
66547;BME280;53400;50.364;14.874;2023-08-08T11:21:27;98399.63;;;20.07;59.74
66547;BME280;53400;50.364;14.874;2023-08-08T11:23:54;98393.69;;;20.05;59.21
66547;BME280;53400;50.364;14.874;2023-08-08T11:26:20;98368.84;;;20.29;57.15
66547;BME280;53400;50.364;14.874;2023-08-08T11:28:50;98380.50;;;20.29;58.64
66547;BME280;53400;50.364;14.874;2023-08-08T11:31:16;98391.50;;;20.55;56.25
66547;BME280;53400;50.364;14.874;2023-08-08T11:33:43;98383.34;;;20.55;55.71
66547;BME280;53400;50.364;14.874;2023-08-08T11:36:09;98373.44;;;20.59;54.12
66547;BME280;53400;50.364;14.874;2023-08-08T11:38:36;98370.88;;;20.23;55.65
66547;BME280;53400;50.364;14.874;2023-08-08T11:41:03;98388.63;;;20.12;55.73
66547;BME280;53400;50.364;14.874;2023-08-08T11:43:29;98376.84;;;19.94;57.04
66547;BME280;53400;50.364;14.874;2023-08-08T11:45:55;98378.16;;;19.74;57.21
66547;BME280;53400;50.364;14.874;2023-08-08T11:48:21;98385.88;;;19.81;57.60
66547;BME280;53400;50.364;14.874;2023-08-08T11:50:47;98375.69;;;19.64;57.51
66547;BME280;53400;50.364;14.874;2023-08-08T11:53:13;98379.97;;;19.79;57.13
66547;BME280;53400;50.364;14.874;2023-08-08T11:55:40;98374.50;;;19.56;55.98
66547;BME280;53400;50.364;14.874;2023-08-08T11:58:12;98373.47;;;19.88;57.09
66547;BME280;53400;50.364;14.874;2023-08-08T12:00:38;98376.00;;;20.16;56.54
66547;BME280;53400;50.364;14.874;2023-08-08T12:03:04;98369.81;;;20.42;55.81
66547;BME280;53400;50.364;14.874;2023-08-08T12:05:36;98360.19;;;20.27;55.89
66547;BME280;53400;50.364;14.874;2023-08-08T12:08:05;98358.13;;;20.32;57.57
66547;BME280;53400;50.364;14.874;2023-08-08T12:10:31;98360.63;;;20.60;55.45
66547;BME280;53400;50.364;14.874;2023-08-08T12:12:57;98349.72;;;20.51;55.91
66547;BME280;53400;50.364;14.874;2023-08-08T12:15:29;98355.59;;;19.96;57.88
66547;BME280;53400;50.364;14.874;2023-08-08T12:17:57;98351.88;;;20.32;57.05
66547;BME280;53400;50.364;14.874;2023-08-08T12:20:27;98344.13;;;20.56;56.98
66547;BME280;53400;50.364;14.874;2023-08-08T12:22:53;98342.38;;;20.52;56.13
66547;BME280;53400;50.364;14.874;2023-08-08T12:25:19;98339.38;;;20.71;55.46
66547;BME280;53400;50.364;14.874;2023-08-08T12:27:45;98337.44;;;20.80;55.58
66547;BME280;53400;50.364;14.874;2023-08-08T12:30:11;98334.25;;;20.87;56.15
66547;BME280;53400;50.364;14.874;2023-08-08T12:32:38;98331.19;;;21.31;55.50
66547;BME280;53400;50.364;14.874;2023-08-08T12:35:05;98334.25;;;21.13;56.37
66547;BME280;53400;50.364;14.874;2023-08-08T12:37:32;98325.91;;;21.26;55.42
66547;BME280;53400;50.364;14.874;2023-08-08T12:39:58;98327.34;;;21.24;55.79
66547;BME280;53400;50.364;14.874;2023-08-08T12:42:24;98334.72;;;21.58;55.00